Terminal Aerodrome Forecast
Issued by NWS Wakefield, VA

Home | Current Version | Previous Version | Text Only | Print | Product List | Glossary On
Versions: 1 2 3 4 5 6 7 8 9 10 11 12 13 14 15 16 17 18 19 20 21 22 23 24 25
179
FTUS41 KAKQ 251131
TAFECG
TAF
KECG 251131Z 2512/2612 05009KT P6SM VCSH SCT025 OVC045
     FM252000 04006KT P6SM SCT045 SCT120
     FM260400 06006KT P6SM SKC=

USA.gov is the U.S. government's official web portal to all federal, state and local government web resources and services.